Kampville Court, Missouri
Current Conditions -  °F | °C
As of 2:54 PM on Thursday 23 Oct 2014 (Local Time) from KSET Reporting Station
Few Clouds Few Clouds  
Wind Chill: 63°   Ceiling: Unl
Heat Index: 63°   Visibility: 10mi
Dew Point: 45°   Wind: 8mph
Humidity: 52%   Direction: 180°S
Pressure: 30.11"   Gusts: NA
Location:  38.8615°N, 90.4548°W
Report Text: KSET 231954Z AUTO 18007KT 10SM FEW047 17/07 A3011 RMK AO2 SLP195 T01720072 $
Loading
Personal Weather Stations






























Interactive Weather Map New forecast layout! Learn more

10-Day Weather Forecast

Advertisements
Track Severe Weather on mobile